createdAt,value
2017-07-08T00:01:23.354Z,22.05
2017-07-08T00:03:51.013Z,22.06
2017-07-08T00:06:19.525Z,22.11
2017-07-08T00:08:47.138Z,22.23
2017-07-08T00:11:15.475Z,22.16
2017-07-08T00:13:43.450Z,22.09
2017-07-08T00:16:11.972Z,22.16
2017-07-08T00:18:39.610Z,21.91
2017-07-08T00:21:07.258Z,21.84
2017-07-08T00:23:34.918Z,21.86
2017-07-08T00:26:02.828Z,21.96
2017-07-08T00:28:30.574Z,21.96
2017-07-08T00:30:58.198Z,21.83
2017-07-08T00:33:26.425Z,21.84
2017-07-08T00:35:54.092Z,21.90
2017-07-08T00:38:22.552Z,21.92
2017-07-08T00:40:52.418Z,22.02
2017-07-08T00:43:20.107Z,21.89
2017-07-08T00:45:48.241Z,21.75
2017-07-08T00:48:16.453Z,21.65
2017-07-08T00:50:44.621Z,21.54
2017-07-08T00:53:12.297Z,21.41
2017-07-08T00:55:39.945Z,21.44
2017-07-08T00:58:07.601Z,21.47
2017-07-08T01:00:35.354Z,21.44
2017-07-08T01:03:03.039Z,21.46
2017-07-08T01:05:30.680Z,21.37
2017-07-08T01:07:59.023Z,21.49
2017-07-08T01:10:26.664Z,21.76
2017-07-08T01:12:55.305Z,21.96
2017-07-08T01:15:22.947Z,22.16
2017-07-08T01:17:51.442Z,22.11
2017-07-08T01:20:19.205Z,22.26
2017-07-08T01:22:47.796Z,22.27
2017-07-08T01:25:15.424Z,22.42
2017-07-08T01:27:43.274Z,22.17
2017-07-08T01:30:11.432Z,22.00
2017-07-08T01:32:39.121Z,21.67
2017-07-08T01:35:06.902Z,21.49
2017-07-08T01:37:34.605Z,21.37
2017-07-08T01:40:02.437Z,21.28
2017-07-08T01:42:30.876Z,20.98
2017-07-08T01:44:58.859Z,21.07
2017-07-08T01:47:27.041Z,21.13
2017-07-08T01:49:55.544Z,21.00
2017-07-08T01:52:25.126Z,21.03
2017-07-08T01:54:52.780Z,21.05
2017-07-08T01:57:20.490Z,21.21
2017-07-08T01:59:48.136Z,21.30
2017-07-08T02:02:16.091Z,21.27
2017-07-08T02:04:43.734Z,21.33
2017-07-08T02:07:12.402Z,21.21
2017-07-08T02:09:40.060Z,21.25
2017-07-08T02:12:08.208Z,21.44
2017-07-08T02:14:36.402Z,21.58
2017-07-08T02:17:04.477Z,21.81
2017-07-08T02:19:32.158Z,22.09
2017-07-08T02:21:59.890Z,22.14
2017-07-08T02:24:27.521Z,22.25
2017-07-08T02:26:55.240Z,22.29
2017-07-08T02:29:22.921Z,22.28
2017-07-08T02:31:50.647Z,22.43
2017-07-08T02:34:18.319Z,22.43
2017-07-08T02:36:46.024Z,22.42
2017-07-08T02:39:13.786Z,22.49
2017-07-08T02:41:41.371Z,22.41
2017-07-08T02:44:08.987Z,22.09
2017-07-08T02:46:36.624Z,22.02
2017-07-08T02:49:04.226Z,22.01
2017-07-08T02:51:31.850Z,22.05
2017-07-08T02:53:59.482Z,21.91
2017-07-08T02:56:27.069Z,21.94
2017-07-08T02:58:55.273Z,21.97
2017-07-08T03:01:23.001Z,22.05
2017-07-08T03:03:50.687Z,22.06
2017-07-08T03:06:18.329Z,22.09
2017-07-08T03:08:46.370Z,22.09
2017-07-08T03:11:13.988Z,22.07
2017-07-08T03:13:41.661Z,22.16
2017-07-08T03:16:09.257Z,22.03
2017-07-08T03:18:36.845Z,22.09
2017-07-08T03:21:04.445Z,22.10
2017-07-08T03:23:32.086Z,22.06
2017-07-08T03:25:59.707Z,22.02
2017-07-08T03:28:27.479Z,22.09
2017-07-08T03:30:56.036Z,22.05
2017-07-08T03:33:23.791Z,21.99
2017-07-08T03:35:51.576Z,22.07
2017-07-08T03:38:20.408Z,22.19
2017-07-08T03:40:48.749Z,22.31
2017-07-08T03:43:16.901Z,22.20
2017-07-08T03:45:45.478Z,21.77
2017-07-08T03:48:13.114Z,21.91
2017-07-08T03:50:41.649Z,21.42
2017-07-08T03:53:09.902Z,21.20
2017-07-08T03:55:37.533Z,21.08
2017-07-08T03:58:05.209Z,21.29
2017-07-08T04:00:33.010Z,21.41
2017-07-08T04:03:00.654Z,21.19
2017-07-08T04:05:28.269Z,21.32
2017-07-08T04:07:55.920Z,21.26
2017-07-08T04:10:23.964Z,21.38
2017-07-08T04:12:52.633Z,21.60
2017-07-08T04:15:21.412Z,21.72
2017-07-08T04:17:49.149Z,21.89
2017-07-08T04:20:16.872Z,21.69
2017-07-08T04:22:44.733Z,21.92
2017-07-08T04:25:12.991Z,21.73
2017-07-08T04:27:40.593Z,21.70
2017-07-08T04:30:08.750Z,21.89
2017-07-08T04:32:36.954Z,21.72
2017-07-08T04:35:04.650Z,21.78
2017-07-08T04:37:32.720Z,21.66
2017-07-08T04:40:00.545Z,21.87
2017-07-08T04:42:28.193Z,21.93
2017-07-08T04:44:56.792Z,21.83
2017-07-08T04:47:24.608Z,22.19
2017-07-08T04:49:52.726Z,22.40
2017-07-08T04:52:20.431Z,22.46
2017-07-08T04:54:48.063Z,22.57
2017-07-08T04:57:15.740Z,22.44
2017-07-08T04:59:44.422Z,22.80
2017-07-08T05:02:12.211Z,22.87
2017-07-08T05:04:39.895Z,22.85
2017-07-08T05:07:14.101Z,22.81
2017-07-08T05:17:09.048Z,22.57
2017-07-08T05:19:37.517Z,22.74
2017-07-08T05:22:06.241Z,22.82
2017-07-08T05:24:33.956Z,22.76
2017-07-08T05:27:01.775Z,23.00
2017-07-08T05:29:29.528Z,23.30
2017-07-08T05:31:57.414Z,23.50
2017-07-08T05:34:25.156Z,23.52
2017-07-08T05:36:52.856Z,23.53
2017-07-08T05:39:20.530Z,23.67
2017-07-08T05:41:48.146Z,23.69
2017-07-08T05:44:16.263Z,24.02
2017-07-08T05:46:43.969Z,23.74
2017-07-08T05:49:11.609Z,23.68
2017-07-08T05:51:39.879Z,23.71
2017-07-08T05:54:08.526Z,23.71
2017-07-08T05:56:36.379Z,23.76
2017-07-08T05:59:04.081Z,23.96
2017-07-08T06:01:31.913Z,23.79
2017-07-08T06:04:00.097Z,23.75
2017-07-08T06:06:27.753Z,23.85
2017-07-08T06:08:58.367Z,24.01
2017-07-08T06:11:25.981Z,24.08
2017-07-08T06:13:53.599Z,24.18
2017-07-08T06:16:21.433Z,24.40
2017-07-08T06:18:50.541Z,25.02
2017-07-08T06:21:18.184Z,25.35
2017-07-08T06:23:45.822Z,25.27
2017-07-08T06:26:13.818Z,25.53
2017-07-08T06:28:41.492Z,25.87
2017-07-08T06:31:10.400Z,26.05
2017-07-08T06:33:38.034Z,26.26
2017-07-08T06:36:06.330Z,26.37
2017-07-08T06:38:34.195Z,26.36
2017-07-08T06:41:01.852Z,26.24
2017-07-08T06:43:29.427Z,26.00
2017-07-08T06:45:57.007Z,25.95
2017-07-08T06:48:24.568Z,25.76
2017-07-08T06:50:52.336Z,25.72
2017-07-08T06:53:20.670Z,25.59
2017-07-08T06:55:48.238Z,25.75
2017-07-08T06:58:15.813Z,25.84
2017-07-08T07:00:43.449Z,25.85
2017-07-08T07:03:11.000Z,25.80
2017-07-08T07:05:38.761Z,25.57
2017-07-08T07:08:08.207Z,25.55
2017-07-08T07:10:35.766Z,25.40
2017-07-08T07:13:03.331Z,25.51
2017-07-08T07:15:30.922Z,25.64
2017-07-08T07:17:58.580Z,25.75
2017-07-08T07:20:26.223Z,25.77
2017-07-08T07:22:53.868Z,25.64
2017-07-08T07:25:21.640Z,25.56
2017-07-08T07:27:49.466Z,25.43
2017-07-08T07:30:17.192Z,25.32
2017-07-08T07:32:45.032Z,25.45
2017-07-08T07:35:12.666Z,25.53
2017-07-08T07:37:40.258Z,25.34
2017-07-08T07:40:07.993Z,25.15
2017-07-08T07:42:35.912Z,25.33
2017-07-08T07:45:03.511Z,25.43
2017-07-08T07:47:31.096Z,25.77
2017-07-08T07:49:58.657Z,26.06
2017-07-08T07:52:26.275Z,26.50
2017-07-08T07:54:53.844Z,26.81
2017-07-08T07:57:21.676Z,27.36
2017-07-08T07:59:49.316Z,27.87
2017-07-08T08:02:16.927Z,28.04
2017-07-08T08:04:44.793Z,28.53
2017-07-08T08:07:12.435Z,28.82
2017-07-08T08:09:40.151Z,29.03
2017-07-08T08:12:07.713Z,29.31
2017-07-08T08:14:35.264Z,29.51
2017-07-08T08:17:03.196Z,29.40
2017-07-08T08:19:31.010Z,29.74
2017-07-08T08:21:59.464Z,30.21
2017-07-08T08:24:27.075Z,30.14
2017-07-08T08:26:54.611Z,29.97
2017-07-08T08:29:22.184Z,29.80
2017-07-08T08:31:49.834Z,30.34
2017-07-08T08:34:18.772Z,30.67
2017-07-08T08:36:46.326Z,31.14
2017-07-08T08:39:13.974Z,31.21
2017-07-08T08:41:41.558Z,31.25
2017-07-08T08:44:09.511Z,30.76
2017-07-08T08:46:37.233Z,31.11
2017-07-08T08:49:04.974Z,30.97
2017-07-08T08:51:33.372Z,31.15
2017-07-08T08:54:00.969Z,30.86
2017-07-08T08:56:28.530Z,30.83
2017-07-08T08:58:56.127Z,30.71
2017-07-08T09:01:23.733Z,30.43
2017-07-08T09:03:51.298Z,30.51
2017-07-08T09:06:18.919Z,30.20
2017-07-08T09:08:46.489Z,29.86
2017-07-08T09:11:14.027Z,30.17
2017-07-08T09:13:41.637Z,30.69
2017-07-08T09:16:09.250Z,30.59
2017-07-08T09:18:36.839Z,30.60
2017-07-08T09:21:04.596Z,31.18
2017-07-08T09:23:32.174Z,31.39
2017-07-08T09:25:59.700Z,31.67
2017-07-08T09:28:27.270Z,31.78
2017-07-08T09:30:54.964Z,31.78
2017-07-08T09:33:22.588Z,31.72
2017-07-08T09:35:50.429Z,31.91
2017-07-08T09:38:18.018Z,32.08
2017-07-08T09:40:46.402Z,31.97
2017-07-08T09:43:13.946Z,32.19
2017-07-08T09:45:41.539Z,32.48
2017-07-08T09:48:09.777Z,32.78
2017-07-08T09:50:37.539Z,32.71
2017-07-08T09:53:05.132Z,32.14
2017-07-08T09:55:33.007Z,32.49
2017-07-08T09:58:00.548Z,32.67
2017-07-08T10:00:28.154Z,32.57
2017-07-08T10:02:56.020Z,32.48
2017-07-08T10:05:23.659Z,32.70
2017-07-08T10:07:51.266Z,32.64
2017-07-08T10:10:19.146Z,32.86
2017-07-08T10:12:46.911Z,33.14
2017-07-08T10:15:14.502Z,33.11
2017-07-08T10:17:42.053Z,33.00
2017-07-08T10:20:09.819Z,32.82
2017-07-08T10:22:37.454Z,32.70
2017-07-08T10:25:05.129Z,32.40
2017-07-08T10:27:32.698Z,32.75
2017-07-08T10:30:00.319Z,33.00
2017-07-08T10:32:28.616Z,33.05
2017-07-08T10:34:56.361Z,32.65
2017-07-08T10:37:24.115Z,32.91
2017-07-08T10:39:51.975Z,33.09
2017-07-08T10:42:19.572Z,33.32
2017-07-08T10:44:47.604Z,33.37
2017-07-08T10:47:15.524Z,32.24
2017-07-08T10:49:43.291Z,32.58
2017-07-08T10:52:10.919Z,32.91
2017-07-08T10:54:38.593Z,33.18
2017-07-08T10:57:06.172Z,33.18
2017-07-08T10:59:33.944Z,33.48
2017-07-08T11:02:01.535Z,33.34
2017-07-08T11:04:29.890Z,32.56
2017-07-08T11:06:57.671Z,32.14
2017-07-08T11:09:25.468Z,32.26
2017-07-08T11:11:53.015Z,32.22
2017-07-08T11:14:20.640Z,32.43
2017-07-08T11:16:48.217Z,32.46
2017-07-08T11:19:15.742Z,32.90
2017-07-08T11:21:43.310Z,33.25
2017-07-08T11:24:10.961Z,33.26
2017-07-08T11:26:39.398Z,33.40
2017-07-08T11:29:06.927Z,33.29
2017-07-08T11:31:34.535Z,33.32
2017-07-08T11:34:02.149Z,33.19
2017-07-08T11:36:29.915Z,33.12
2017-07-08T11:38:57.545Z,33.13
2017-07-08T11:41:25.161Z,33.10
2017-07-08T11:43:52.936Z,33.26
2017-07-08T11:46:20.498Z,33.36
2017-07-08T11:48:48.247Z,32.98
2017-07-08T11:51:15.850Z,32.84
2017-07-08T11:53:43.514Z,32.93
2017-07-08T11:56:11.159Z,33.01
2017-07-08T11:58:39.035Z,32.89
2017-07-08T12:01:06.614Z,33.13
2017-07-08T12:03:34.697Z,33.24
2017-07-08T12:06:02.491Z,33.64
2017-07-08T12:08:30.087Z,33.87
2017-07-08T12:10:57.877Z,34.09
2017-07-08T12:13:25.626Z,34.16
2017-07-08T12:15:53.294Z,34.22
2017-07-08T12:18:21.041Z,34.14
2017-07-08T12:20:48.831Z,34.40
2017-07-08T12:23:16.876Z,34.25
2017-07-08T12:25:44.518Z,33.88
2017-07-08T12:28:12.101Z,33.66
2017-07-08T12:30:39.717Z,33.64
2017-07-08T12:33:07.260Z,33.82
2017-07-08T12:35:35.832Z,33.78
2017-07-08T12:38:03.435Z,33.89
2017-07-08T12:40:31.033Z,33.96
2017-07-08T12:42:58.833Z,33.90
2017-07-08T12:45:26.433Z,33.69
2017-07-08T12:47:54.855Z,33.50
2017-07-08T12:50:22.421Z,33.41
2017-07-08T12:52:50.017Z,33.22
2017-07-08T12:55:17.567Z,33.11
2017-07-08T12:57:45.321Z,32.95
2017-07-08T13:00:13.765Z,32.96
2017-07-08T13:02:41.394Z,32.81
2017-07-08T13:05:09.236Z,32.53
2017-07-08T13:07:37.316Z,32.01
2017-07-08T13:10:06.116Z,31.57
2017-07-08T13:12:34.619Z,31.38
2017-07-08T13:15:03.537Z,31.36
2017-07-08T13:17:33.581Z,31.04
2017-07-08T13:20:01.616Z,30.58
2017-07-08T13:22:29.345Z,30.52
2017-07-08T13:24:56.973Z,30.52
2017-07-08T13:27:25.923Z,30.34
2017-07-08T13:29:53.770Z,30.57
2017-07-08T13:32:21.404Z,30.18
2017-07-08T13:34:49.110Z,30.17
2017-07-08T13:37:16.766Z,29.71
2017-07-08T13:39:44.651Z,29.65
2017-07-08T13:42:13.211Z,29.90
2017-07-08T13:44:42.090Z,29.75
2017-07-08T13:47:11.017Z,30.16
2017-07-08T13:49:38.744Z,30.26
2017-07-08T13:52:06.323Z,30.41
2017-07-08T13:54:35.852Z,30.13
2017-07-08T13:57:03.742Z,30.12
2017-07-08T13:59:31.482Z,30.29
2017-07-08T14:01:59.147Z,30.04
2017-07-08T14:04:27.757Z,30.00
2017-07-08T14:06:58.914Z,30.18
2017-07-08T14:09:31.254Z,30.22
2017-07-08T14:12:01.016Z,29.56
2017-07-08T14:14:31.092Z,29.30
2017-07-08T14:16:58.772Z,29.54
2017-07-08T14:19:26.485Z,29.88
2017-07-08T14:21:55.233Z,30.06
2017-07-08T14:24:22.982Z,30.24
2017-07-08T14:26:50.601Z,30.26
2017-07-08T14:29:18.266Z,30.03
2017-07-08T14:31:45.885Z,30.11
2017-07-08T14:34:13.489Z,30.39
2017-07-08T14:36:41.203Z,30.42
2017-07-08T14:39:08.825Z,30.34
2017-07-08T14:41:36.505Z,30.44
2017-07-08T14:44:04.286Z,30.32
2017-07-08T14:46:32.213Z,30.51
2017-07-08T14:49:00.120Z,30.79
2017-07-08T14:51:28.685Z,31.02
2017-07-08T14:53:56.738Z,31.28
2017-07-08T14:56:24.362Z,31.31
2017-07-08T14:58:51.981Z,31.41
2017-07-08T15:01:20.439Z,31.44
2017-07-08T15:03:48.092Z,31.51
2017-07-08T15:06:15.622Z,31.32
2017-07-08T15:08:43.578Z,31.40
2017-07-08T15:11:11.753Z,31.31
2017-07-08T15:13:39.500Z,31.17
2017-07-08T15:16:07.943Z,31.26
2017-07-08T15:18:38.007Z,31.14
2017-07-08T15:21:06.211Z,31.19
2017-07-08T15:23:34.213Z,31.26
2017-07-08T15:26:02.464Z,31.17
2017-07-08T15:28:30.995Z,31.02
2017-07-08T15:30:58.696Z,30.82
2017-07-08T15:33:28.297Z,30.11
2017-07-08T15:35:56.297Z,29.36
2017-07-08T15:38:24.327Z,28.93
2017-07-08T15:40:53.637Z,28.42
2017-07-08T15:43:21.805Z,28.04
2017-07-08T15:45:50.677Z,27.57
2017-07-08T15:48:19.443Z,27.15
2017-07-08T15:50:47.914Z,26.90
2017-07-08T15:53:16.846Z,26.74
2017-07-08T15:55:46.167Z,26.93
2017-07-08T15:58:13.800Z,27.21
2017-07-08T16:00:41.543Z,27.36
2017-07-08T16:03:09.671Z,27.58
2017-07-08T16:05:37.510Z,27.37
2017-07-08T16:08:06.955Z,27.31
2017-07-08T16:10:35.330Z,27.17
2017-07-08T16:13:03.082Z,27.13
2017-07-08T16:15:31.704Z,26.68
2017-07-08T16:17:59.494Z,26.59
2017-07-08T16:20:27.394Z,26.54
2017-07-08T16:22:56.455Z,26.16
2017-07-08T16:25:24.131Z,25.95
2017-07-08T16:27:52.712Z,26.02
2017-07-08T16:30:20.655Z,26.22
2017-07-08T16:32:48.944Z,25.71
2017-07-08T16:35:19.443Z,25.55
2017-07-08T16:37:47.270Z,25.66
2017-07-08T16:40:15.110Z,25.83
2017-07-08T16:42:44.025Z,26.23
2017-07-08T16:45:11.674Z,26.34
2017-07-08T16:47:39.859Z,26.37
2017-07-08T16:50:07.791Z,26.71
2017-07-08T16:52:35.420Z,26.74
2017-07-08T16:55:02.994Z,26.50
2017-07-08T16:57:30.774Z,26.49
2017-07-08T16:59:58.375Z,26.63
2017-07-08T17:02:26.182Z,26.65
2017-07-08T17:04:53.939Z,26.81
2017-07-08T17:07:22.388Z,26.85
2017-07-08T17:09:50.642Z,26.88
2017-07-08T17:12:18.317Z,26.90
2017-07-08T17:14:45.875Z,27.04
2017-07-08T17:17:13.487Z,26.92
2017-07-08T17:19:41.240Z,26.80
2017-07-08T17:22:08.970Z,26.87
2017-07-08T17:24:37.517Z,26.99
2017-07-08T17:27:05.395Z,27.07
2017-07-08T17:29:33.112Z,27.10
2017-07-08T17:32:01.201Z,27.26
2017-07-08T17:34:29.896Z,27.27
2017-07-08T17:36:59.552Z,27.32
2017-07-08T17:39:27.685Z,27.35
2017-07-08T17:41:55.560Z,27.36
2017-07-08T17:44:23.180Z,27.38
2017-07-08T17:46:50.840Z,27.34
2017-07-08T17:49:18.433Z,27.24
2017-07-08T17:51:46.292Z,27.25
2017-07-08T17:54:13.920Z,27.26
2017-07-08T17:56:41.512Z,27.21
2017-07-08T17:59:09.134Z,27.18
2017-07-08T18:01:36.721Z,27.17
2017-07-08T18:04:04.327Z,27.09
2017-07-08T18:06:31.870Z,27.01
2017-07-08T18:08:59.499Z,26.79
2017-07-08T18:11:27.027Z,26.86
2017-07-08T18:13:54.612Z,26.81
2017-07-08T18:16:22.168Z,26.80
2017-07-08T18:18:49.918Z,26.75
2017-07-08T18:21:17.531Z,26.70
2017-07-08T18:23:45.134Z,26.60
2017-07-08T18:26:12.817Z,26.54
2017-07-08T18:28:40.379Z,26.48
2017-07-08T18:31:07.982Z,26.48
2017-07-08T18:33:35.571Z,26.46
2017-07-08T18:36:03.125Z,26.40
2017-07-08T18:38:30.687Z,26.32
2017-07-08T18:40:58.297Z,26.19
2017-07-08T18:43:26.061Z,26.11
2017-07-08T18:45:53.629Z,26.07
2017-07-08T18:48:21.207Z,26.08
2017-07-08T18:50:49.627Z,26.00
2017-07-08T18:53:20.339Z,25.92
2017-07-08T18:55:50.903Z,25.99
2017-07-08T18:58:21.481Z,25.96
2017-07-08T19:00:49.085Z,25.95
2017-07-08T19:03:16.709Z,25.84
2017-07-08T19:05:44.583Z,25.84
2017-07-08T19:08:12.174Z,25.88
2017-07-08T19:10:40.918Z,25.87
2017-07-08T19:13:08.457Z,25.74
2017-07-08T19:15:37.399Z,25.72
2017-07-08T19:18:05.802Z,25.67
2017-07-08T19:20:33.457Z,25.62
2017-07-08T19:23:01.128Z,25.49
2017-07-08T19:25:29.234Z,25.33
2017-07-08T19:27:58.475Z,25.39
2017-07-08T19:30:26.549Z,25.38
2017-07-08T19:32:54.075Z,25.44
2017-07-08T19:35:21.862Z,25.45
2017-07-08T19:37:49.467Z,25.43
2017-07-08T19:40:17.091Z,25.42
2017-07-08T19:42:45.044Z,25.35
2017-07-08T19:45:12.704Z,25.26
2017-07-08T19:47:40.716Z,25.31
2017-07-08T19:50:08.309Z,25.16
2017-07-08T19:52:35.882Z,25.26
2017-07-08T19:55:04.606Z,25.05
2017-07-08T19:57:32.197Z,25.01
2017-07-08T20:00:00.439Z,25.04
2017-07-08T20:02:28.087Z,24.95
2017-07-08T20:04:55.892Z,24.93
2017-07-08T20:07:24.487Z,24.88
2017-07-08T20:09:52.245Z,24.91
2017-07-08T20:12:19.838Z,24.89
2017-07-08T20:14:47.431Z,25.04
2017-07-08T20:17:16.467Z,25.10
2017-07-08T20:19:44.070Z,25.01
2017-07-08T20:22:14.273Z,24.83
2017-07-08T20:24:41.874Z,24.59
2017-07-08T20:27:10.263Z,24.60
2017-07-08T20:29:39.315Z,24.72
2017-07-08T20:32:07.058Z,24.64
2017-07-08T20:34:34.695Z,24.68
2017-07-08T20:37:02.233Z,24.74
2017-07-08T20:39:29.936Z,24.70
2017-07-08T20:41:57.526Z,24.69
2017-07-08T20:44:25.148Z,24.64
2017-07-08T20:46:52.754Z,24.65
2017-07-08T20:49:26.237Z,24.65
2017-07-08T20:51:53.860Z,24.66
2017-07-08T20:54:21.384Z,24.71
2017-07-08T20:56:48.972Z,24.76
2017-07-08T20:59:16.569Z,24.72
2017-07-08T21:01:44.138Z,24.73
2017-07-08T21:04:11.888Z,24.62
2017-07-08T21:06:39.493Z,24.64
2017-07-08T21:09:07.075Z,24.56
2017-07-08T21:11:35.428Z,24.54
2017-07-08T21:14:03.013Z,24.55
2017-07-08T21:16:30.674Z,24.54
2017-07-08T21:18:58.449Z,24.50
2017-07-08T21:21:26.002Z,24.47
2017-07-08T21:23:53.700Z,24.50
2017-07-08T21:26:21.237Z,24.44
2017-07-08T21:28:48.887Z,24.36
2017-07-08T21:31:16.493Z,24.39
2017-07-08T21:33:44.256Z,24.40
2017-07-08T21:36:11.867Z,24.35
2017-07-08T21:38:39.710Z,24.35
2017-07-08T21:41:07.255Z,24.20
2017-07-08T21:43:34.836Z,24.07
2017-07-08T21:46:02.405Z,24.00
2017-07-08T21:48:30.156Z,23.99
2017-07-08T21:50:57.785Z,23.93
2017-07-08T21:53:25.976Z,23.84
2017-07-08T21:55:53.618Z,23.88
2017-07-08T21:58:21.223Z,23.97
2017-07-08T22:00:48.876Z,23.91
2017-07-08T22:03:16.468Z,23.94
2017-07-08T22:05:44.255Z,23.87
2017-07-08T22:08:11.850Z,23.77
2017-07-08T22:10:39.483Z,23.76
2017-07-08T22:13:07.258Z,23.82
2017-07-08T22:15:34.824Z,23.72
2017-07-08T22:18:03.222Z,23.75
2017-07-08T22:20:30.805Z,23.79
2017-07-08T22:22:58.393Z,23.80
2017-07-08T22:25:25.943Z,23.78
2017-07-08T22:27:53.479Z,23.71
2017-07-08T22:30:21.494Z,23.65
2017-07-08T22:32:49.057Z,23.59
2017-07-08T22:35:16.861Z,23.56
2017-07-08T22:37:44.444Z,23.47
2017-07-08T22:40:12.355Z,23.60
2017-07-08T22:42:39.975Z,23.50
2017-07-08T22:45:07.581Z,23.32
2017-07-08T22:47:35.156Z,23.32
2017-07-08T22:50:02.937Z,23.33
2017-07-08T22:52:30.523Z,23.24
2017-07-08T22:54:58.192Z,23.30
2017-07-08T22:57:25.753Z,23.37
2017-07-08T22:59:53.572Z,23.33
2017-07-08T23:02:21.254Z,23.31
2017-07-08T23:04:48.834Z,23.35
2017-07-08T23:07:16.641Z,23.29
2017-07-08T23:09:44.212Z,23.13
2017-07-08T23:12:11.787Z,23.12
2017-07-08T23:14:39.409Z,23.11
2017-07-08T23:17:07.086Z,23.20
2017-07-08T23:19:34.726Z,22.98
2017-07-08T23:22:02.480Z,22.88
2017-07-08T23:24:30.088Z,22.73
2017-07-08T23:26:57.669Z,22.78
2017-07-08T23:29:25.259Z,22.94
2017-07-08T23:31:52.885Z,22.95
2017-07-08T23:34:20.418Z,22.92
2017-07-08T23:36:47.970Z,22.91
2017-07-08T23:39:15.586Z,22.88
2017-07-08T23:41:43.206Z,22.92
2017-07-08T23:44:10.781Z,22.87
2017-07-08T23:46:38.365Z,22.76
2017-07-08T23:49:05.941Z,22.90
2017-07-08T23:51:33.708Z,22.94
2017-07-08T23:54:01.282Z,22.94
2017-07-08T23:56:28.944Z,22.89
2017-07-08T23:58:56.855Z,22.93
